createdAt,value
2023-01-19T00:00:35.634Z,1000.00
2023-01-19T00:01:35.535Z,1003.00
2023-01-19T00:02:35.544Z,1013.00
2023-01-19T00:03:35.518Z,997.00
2023-01-19T00:04:36.503Z,1010.00
2023-01-19T00:05:35.518Z,987.00
2023-01-19T00:06:35.600Z,990.00
2023-01-19T00:07:35.509Z,1019.00
2023-01-19T00:10:35.517Z,1015.00
2023-01-19T00:11:35.523Z,1006.00
2023-01-19T00:12:35.517Z,1024.00
2023-01-19T00:13:35.544Z,1019.00
2023-01-19T00:14:35.534Z,1009.00
2023-01-19T00:15:35.539Z,1008.00
2023-01-19T00:16:35.576Z,1009.00
2023-01-19T00:17:35.570Z,1004.00
2023-01-19T00:18:35.565Z,1010.00
2023-01-19T00:19:35.559Z,1021.00
2023-01-19T00:20:35.674Z,1001.00
2023-01-19T00:21:35.573Z,1018.00
2023-01-19T00:22:35.571Z,996.00
2023-01-19T00:23:35.581Z,1014.00
2023-01-19T00:24:35.583Z,1005.00
2023-01-19T00:25:35.617Z,1011.00
2023-01-19T00:26:35.597Z,983.00
2023-01-19T00:27:35.599Z,975.00
2023-01-19T00:28:35.602Z,986.00
2023-01-19T00:29:35.604Z,978.00
2023-01-19T00:30:35.604Z,1022.00
2023-01-19T00:31:35.675Z,997.00
2023-01-19T00:32:35.601Z,996.00
2023-01-19T00:33:35.606Z,1004.00
2023-01-19T00:34:35.643Z,995.00
2023-01-19T00:35:35.645Z,1008.00
2023-01-19T00:36:35.653Z,1012.00
2023-01-19T00:37:35.645Z,1001.00
2023-01-19T00:38:35.647Z,983.00
2023-01-19T00:39:35.644Z,1007.00
2023-01-19T00:40:35.648Z,988.00
2023-01-19T00:41:35.650Z,980.00
2023-01-19T00:42:35.656Z,996.00
2023-01-19T00:43:35.643Z,999.00
2023-01-19T00:44:35.649Z,986.00
2023-01-19T00:45:35.704Z,1009.00
2023-01-19T00:46:35.655Z,1016.00
2023-01-19T00:47:35.659Z,982.00
2023-01-19T00:48:35.672Z,991.00
2023-01-19T00:49:35.645Z,979.00
2023-01-19T00:50:35.641Z,972.00
2023-01-19T00:51:35.651Z,977.00
2023-01-19T00:52:35.627Z,983.00
2023-01-19T00:54:35.604Z,1001.00
2023-01-19T00:55:35.614Z,1007.00
2023-01-19T00:56:35.627Z,1009.00
2023-01-19T00:57:35.624Z,993.00
2023-01-19T00:58:35.627Z,998.00
2023-01-19T00:59:35.639Z,975.00
2023-01-19T01:00:35.632Z,990.00
2023-01-19T01:01:46.087Z,976.00
2023-01-19T01:02:36.667Z,976.00
2023-01-19T01:03:35.548Z,977.00
2023-01-19T01:38:35.542Z,981.00
2023-01-19T03:46:29.540Z,992.00
2023-01-19T03:47:29.517Z,1001.00
2023-01-19T03:48:29.500Z,982.00
2023-01-19T03:49:29.453Z,980.00
2023-01-19T03:50:29.425Z,974.00
2023-01-19T03:51:29.407Z,988.00
2023-01-19T05:45:28.026Z,1035.00
2023-01-19T05:46:28.110Z,1025.00
2023-01-19T05:47:28.019Z,1025.00
2023-01-19T05:48:28.000Z,1038.00
2023-01-19T05:49:28.014Z,1032.00
2023-01-19T05:50:27.977Z,1040.00
2023-01-19T05:51:27.985Z,1032.00
2023-01-19T05:52:27.975Z,1033.00
2023-01-19T05:53:27.973Z,1029.00
2023-01-19T05:54:27.963Z,1014.00
2023-01-19T05:55:27.954Z,1033.00
2023-01-19T05:56:27.949Z,1034.00
2023-01-19T05:57:27.937Z,1029.00
2023-01-19T05:58:27.945Z,1019.00
2023-01-19T05:59:27.924Z,1031.00
2023-01-19T06:00:27.924Z,1027.00
2023-01-19T06:01:28.004Z,1045.00
2023-01-19T06:02:28.012Z,1031.00
2023-01-19T06:03:27.935Z,1033.00
2023-01-19T06:04:27.904Z,1050.00
2023-01-19T06:05:27.895Z,1045.00
2023-01-19T06:06:27.952Z,1033.00
2023-01-19T06:07:29.142Z,1036.00
2023-01-19T06:08:27.876Z,1024.00
2023-01-19T06:09:27.860Z,1024.00
2023-01-19T06:10:27.862Z,1026.00
2023-01-19T06:11:27.867Z,1026.00
2023-01-19T06:12:27.856Z,1027.00
2023-01-19T06:13:27.846Z,1018.00
2023-01-19T06:14:27.841Z,1032.00
2023-01-19T06:15:27.828Z,1029.00
2023-01-19T06:16:27.898Z,1011.00
2023-01-19T06:17:27.833Z,1024.00
2023-01-19T06:18:27.808Z,1033.00
2023-01-19T06:19:27.808Z,1029.00
2023-01-19T06:20:27.797Z,1027.00
2023-01-19T06:21:27.793Z,1037.00
2023-01-19T06:22:27.785Z,1007.00
2023-01-19T06:23:27.785Z,1003.00
2023-01-19T06:24:27.777Z,1052.00
2023-01-19T06:25:27.767Z,1203.00
2023-01-19T06:26:27.743Z,915.00
2023-01-19T06:27:27.734Z,923.00
2023-01-19T06:29:28.738Z,1003.00
2023-01-19T06:31:27.624Z,1000.00
2023-01-19T06:32:27.498Z,980.00
2023-01-19T06:33:27.431Z,1004.00
2023-01-19T06:34:27.348Z,1037.00
2023-01-19T06:35:27.282Z,1026.00
2023-01-19T06:36:27.210Z,1015.00
2023-01-19T06:37:27.147Z,1036.00
2023-01-19T06:39:27.038Z,1015.00
2023-01-19T06:40:26.995Z,1025.00
2023-01-19T06:55:28.018Z,985.00
2023-01-19T06:56:26.740Z,998.00
2023-01-19T06:57:26.721Z,1000.00
2023-01-19T06:58:26.669Z,1014.00
2023-01-19T06:59:26.635Z,1016.00
2023-01-19T07:00:26.610Z,1007.00
2023-01-19T07:01:26.633Z,997.00
2023-01-19T07:02:28.561Z,1000.00
2023-01-19T07:03:26.504Z,996.00
2023-01-19T07:04:26.416Z,1005.00
2023-01-19T07:05:26.375Z,1007.00
2023-01-19T07:06:26.345Z,1003.00
2023-01-19T07:07:26.300Z,976.00
2023-01-19T07:08:26.250Z,1010.00
2023-01-19T07:09:26.240Z,992.00
2023-01-19T07:10:26.221Z,996.00
2023-01-19T07:11:33.068Z,997.00
2023-01-19T07:12:27.077Z,997.00
2023-01-19T07:13:25.977Z,998.00
2023-01-19T07:14:25.901Z,994.00
2023-01-19T07:15:25.831Z,987.00
2023-01-19T07:16:25.765Z,999.00
2023-01-19T07:17:25.678Z,990.00
2023-01-19T07:18:25.597Z,985.00
2023-01-19T07:19:25.522Z,994.00
2023-01-19T07:24:26.627Z,967.00
2023-01-19T07:26:25.701Z,975.00
2023-01-19T09:31:18.598Z,1279.00
2023-01-19T09:34:18.274Z,1236.00
2023-01-19T09:35:18.202Z,1237.00
2023-01-19T09:36:18.192Z,1240.00
2023-01-19T09:37:18.755Z,1249.00
2023-01-19T09:53:17.237Z,1212.00
2023-01-19T09:56:17.012Z,1226.00
2023-01-19T09:58:16.910Z,1209.00
2023-01-19T09:59:16.878Z,1215.00
2023-01-19T10:00:16.867Z,1214.00
2023-01-19T10:01:16.888Z,1219.00
2023-01-19T10:02:16.820Z,1205.00
2023-01-19T10:03:16.860Z,1233.00
2023-01-19T10:04:16.788Z,1229.00
2023-01-19T10:05:16.777Z,1229.00
2023-01-19T10:07:16.758Z,1227.00
2023-01-19T10:08:16.723Z,1219.00
2023-01-19T10:09:17.289Z,1223.00
2023-01-19T10:10:16.716Z,1208.00
2023-01-19T10:11:16.690Z,1209.00
2023-01-19T10:12:17.928Z,1209.00
2023-01-19T10:13:16.651Z,1222.00
2023-01-19T10:14:18.144Z,1223.00
2023-01-19T10:15:16.500Z,1215.00
2023-01-19T10:16:16.454Z,1216.00
2023-01-19T10:17:16.355Z,1209.00
2023-01-19T10:18:16.253Z,1233.00
2023-01-19T10:19:16.176Z,1220.00
2023-01-19T10:20:16.102Z,1198.00
2023-01-19T10:21:16.026Z,1198.00
2023-01-19T10:22:15.947Z,1210.00
2023-01-19T10:23:15.923Z,1204.00
2023-01-19T10:24:15.940Z,1211.00
2023-01-19T10:25:16.225Z,1200.00
2023-01-19T10:26:15.883Z,1216.00
2023-01-19T10:27:15.833Z,1210.00
2023-01-19T10:28:15.833Z,1206.00
2023-01-19T10:29:15.828Z,1200.00
2023-01-19T10:30:15.818Z,1217.00
2023-01-19T10:31:15.835Z,1207.00
2023-01-19T10:32:15.868Z,1211.00
2023-01-19T10:33:15.812Z,1192.00
2023-01-19T10:34:19.128Z,1193.00
2023-01-19T10:35:15.707Z,1193.00
2023-01-19T10:36:16.243Z,1195.00
2023-01-19T10:37:15.567Z,1195.00
2023-01-19T10:38:16.233Z,1200.00
2023-01-19T10:39:15.400Z,1206.00
2023-01-19T10:40:15.349Z,1196.00
2023-01-19T10:41:15.327Z,1208.00
2023-01-19T10:42:15.186Z,1197.00
2023-01-19T10:43:15.094Z,1208.00
2023-01-19T10:44:15.060Z,1200.00
2023-01-19T10:45:14.955Z,1211.00
2023-01-19T10:46:14.939Z,1207.00
2023-01-19T10:47:14.808Z,1213.00
2023-01-19T10:48:14.737Z,1208.00
2023-01-19T10:49:14.735Z,1209.00
2023-01-19T10:50:14.614Z,1209.00
2023-01-19T10:51:14.549Z,1209.00
2023-01-19T10:52:14.477Z,1199.00
2023-01-19T10:53:14.383Z,1202.00
2023-01-19T10:54:14.324Z,1200.00
2023-01-19T10:55:14.263Z,1221.00
2023-01-19T10:56:14.244Z,1202.00
2023-01-19T10:57:14.207Z,1206.00
2023-01-19T10:58:14.156Z,1215.00
2023-01-19T10:59:14.213Z,1212.00
2023-01-19T11:00:14.215Z,1198.00
2023-01-19T11:01:14.304Z,1215.00
2023-01-19T11:02:14.414Z,1200.00
2023-01-19T11:03:14.201Z,1209.00
2023-01-19T11:16:18.771Z,1315.00
2023-01-19T11:23:13.480Z,1334.00
2023-01-19T11:24:13.405Z,1329.00
2023-01-19T11:25:13.327Z,1340.00
2023-01-19T11:26:13.246Z,1348.00
2023-01-19T11:27:13.175Z,1375.00
2023-01-19T11:28:13.087Z,1354.00
2023-01-19T11:29:13.007Z,1352.00
2023-01-19T11:30:12.933Z,1347.00
2023-01-19T11:31:12.916Z,1346.00
2023-01-19T11:32:12.780Z,1344.00
2023-01-19T11:33:12.683Z,1345.00
2023-01-19T11:34:12.613Z,1345.00
2023-01-19T11:35:12.520Z,1347.00
2023-01-19T11:36:12.445Z,1324.00
2023-01-19T11:37:12.369Z,1336.00
2023-01-19T11:38:12.285Z,1330.00
2023-01-19T11:39:12.175Z,1312.00
2023-01-19T11:40:14.345Z,1311.00
2023-01-19T11:41:12.015Z,1302.00
2023-01-19T11:43:11.895Z,1308.00
2023-01-19T13:31:05.791Z,893.00
2023-01-19T13:32:05.676Z,884.00
2023-01-19T13:33:05.630Z,897.00
2023-01-19T13:34:05.616Z,878.00
2023-01-19T13:35:05.582Z,883.00
2023-01-19T13:36:05.569Z,883.00
2023-01-19T13:37:05.521Z,890.00
2023-01-19T13:45:06.299Z,867.00
2023-01-19T18:07:58.215Z,745.00
2023-01-19T18:08:58.151Z,738.00
2023-01-19T18:10:00.864Z,750.00
2023-01-19T18:10:58.044Z,746.00
2023-01-19T18:11:57.971Z,761.00
2023-01-19T18:12:57.906Z,745.00
2023-01-19T18:13:57.825Z,736.00
2023-01-19T18:14:57.763Z,735.00
2023-01-19T18:15:58.432Z,741.00
2023-01-19T18:16:57.626Z,748.00
2023-01-19T18:17:57.548Z,739.00
2023-01-19T18:18:57.475Z,749.00
2023-01-19T18:19:57.474Z,747.00
2023-01-19T18:20:57.348Z,738.00
2023-01-19T18:21:57.285Z,742.00
2023-01-19T18:22:57.207Z,736.00
2023-01-19T18:23:57.147Z,735.00
2023-01-19T18:24:57.067Z,740.00
2023-01-19T18:25:56.993Z,736.00
2023-01-19T18:26:56.927Z,742.00
2023-01-19T18:42:55.782Z,733.00
2023-01-19T18:43:55.694Z,735.00
2023-01-19T18:44:55.628Z,722.00
2023-01-19T18:45:56.422Z,733.00
2023-01-19T20:56:48.580Z,710.00
2023-01-19T20:57:48.532Z,723.00
2023-01-19T20:58:48.473Z,707.00
2023-01-19T21:07:48.071Z,716.00
2023-01-19T21:08:48.044Z,722.00
2023-01-19T21:09:47.995Z,720.00
2023-01-19T21:10:47.957Z,714.00
2023-01-19T21:11:47.906Z,707.00
2023-01-19T21:12:47.894Z,709.00
2023-01-19T21:21:48.426Z,702.00
2023-01-19T21:22:47.464Z,713.00
2023-01-19T21:23:47.383Z,721.00
2023-01-19T21:24:47.350Z,725.00
2023-01-19T21:25:47.320Z,726.00
2023-01-19T21:26:47.245Z,725.00
2023-01-19T21:27:47.181Z,726.00
2023-01-19T21:28:47.122Z,725.00
2023-01-19T21:29:47.078Z,722.00
2023-01-19T21:30:47.135Z,720.00
2023-01-19T21:31:46.995Z,717.00
2023-01-19T21:32:46.932Z,716.00
2023-01-19T21:33:46.881Z,703.00
2023-01-19T21:34:46.825Z,712.00
2023-01-19T21:35:46.779Z,715.00
2023-01-19T21:36:46.734Z,707.00
2023-01-19T21:37:46.673Z,723.00
2023-01-19T21:38:46.614Z,720.00
2023-01-19T21:39:46.552Z,729.00
2023-01-19T21:40:46.492Z,731.00
2023-01-19T21:41:46.441Z,719.00
2023-01-19T21:42:46.374Z,728.00
2023-01-19T21:43:46.522Z,712.00
2023-01-19T21:44:46.290Z,720.00
2023-01-19T21:45:46.295Z,718.00
2023-01-19T21:46:46.172Z,715.00
2023-01-19T21:47:46.125Z,725.00
2023-01-19T21:48:46.108Z,715.00
2023-01-19T21:49:46.008Z,716.00
2023-01-19T21:50:45.952Z,717.00
2023-01-19T21:51:47.896Z,722.00
2023-01-19T21:52:45.805Z,714.00
2023-01-19T21:53:45.759Z,712.00
2023-01-19T21:54:45.709Z,719.00
2023-01-19T21:55:45.669Z,724.00
2023-01-19T21:56:45.619Z,716.00
2023-01-19T21:57:45.589Z,708.00
2023-01-19T21:58:45.519Z,713.00
2023-01-19T23:06:41.520Z,681.00
2023-01-19T23:08:41.405Z,683.00
2023-01-19T23:10:41.280Z,687.00
2023-01-19T23:11:41.255Z,700.00
2023-01-19T23:12:41.163Z,690.00
2023-01-19T23:13:41.105Z,700.00
2023-01-19T23:14:41.027Z,709.00
2023-01-19T23:15:41.016Z,700.00
2023-01-19T23:16:40.927Z,675.00
2023-01-19T23:17:40.879Z,689.00
2023-01-19T23:18:40.829Z,707.00
2023-01-19T23:19:40.735Z,691.00
2023-01-19T23:20:40.687Z,681.00
2023-01-19T23:21:40.656Z,686.00
2023-01-19T23:22:40.565Z,681.00
2023-01-19T23:23:40.499Z,698.00
2023-01-19T23:24:40.439Z,700.00
2023-01-19T23:25:40.371Z,706.00
2023-01-19T23:26:40.308Z,687.00
2023-01-19T23:27:40.255Z,700.00
2023-01-19T23:28:40.186Z,704.00
2023-01-19T23:29:40.126Z,713.00
2023-01-19T23:30:40.171Z,693.00
2023-01-19T23:31:40.077Z,705.00
2023-01-19T23:32:39.947Z,687.00
2023-01-19T23:33:39.911Z,695.00
2023-01-19T23:34:39.811Z,687.00
2023-01-19T23:35:39.746Z,693.00
2023-01-19T23:36:39.688Z,691.00
2023-01-19T23:37:39.617Z,699.00
2023-01-19T23:38:39.569Z,690.00
2023-01-19T23:39:39.524Z,694.00
2023-01-19T23:40:39.450Z,692.00
2023-01-19T23:41:39.392Z,688.00
2023-01-19T23:42:39.323Z,682.00
2023-01-19T23:43:39.251Z,697.00
2023-01-19T23:44:39.205Z,698.00
2023-01-19T23:45:39.133Z,696.00
2023-01-19T23:46:39.075Z,710.00
2023-01-19T23:47:39.003Z,698.00
2023-01-19T23:48:38.942Z,706.00
2023-01-19T23:49:38.877Z,684.00
2023-01-19T23:50:38.794Z,729.00
2023-01-19T23:51:38.724Z,706.00
2023-01-19T23:52:38.674Z,687.00
2023-01-19T23:53:38.601Z,688.00
2023-01-19T23:54:38.547Z,693.00
2023-01-19T23:55:38.492Z,696.00
2023-01-19T23:56:38.421Z,693.00
2023-01-19T23:57:38.360Z,698.00
2023-01-19T23:58:38.306Z,699.00
2023-01-19T23:59:38.277Z,695.00
